Time;durP1;ratioP1;P1;durP2;ratioP2;P2;SDS_P1;SDS_P2;PMS_P1;PMS_P2;Temp;Humidity;BMP_temperature;BMP_pressure;BME280_temperature;BME280_humidity;BME280_pressure;Samples;Min_cycle;Max_cycle;Signal;HPM_P1;HPM_P2
2021/07/03 00:01:54;;;;;;;9.32;5.22;;;;;;;15.25;69.79;96798.47;5004173;28;20042;-62
2021/07/03 00:04:20;;;;;;;8.98;5.25;;;;;;;15.29;69.62;96799.28;4979263;28;20503;-62
2021/07/03 00:06:46;;;;;;;10.27;5.25;;;;;;;15.28;69.68;96797.69;4983521;28;20051;-63
2021/07/03 00:09:12;;;;;;;11.23;5.40;;;;;;;15.31;69.49;96801.66;4984564;28;20057;-63
2021/07/03 00:11:37;;;;;;;10.32;5.50;;;;;;;15.28;69.52;96803.22;4999033;28;20391;-62
2021/07/03 00:14:04;;;;;;;9.75;5.85;;;;;;;15.30;69.42;96809.13;4987086;28;20435;-64
2021/07/03 00:16:29;;;;;;;9.63;4.80;;;;;;;15.24;69.60;96805.97;4969859;28;20057;-62
2021/07/03 00:18:55;;;;;;;16.67;6.13;;;;;;;15.23;69.90;96800.84;4986354;28;20133;-63
2021/07/03 00:21:20;;;;;;;7.97;5.20;;;;;;;15.27;69.57;96809.94;4966141;28;20038;-63
2021/07/03 00:23:46;;;;;;;11.07;5.30;;;;;;;15.28;69.65;96805.97;4984978;28;20583;-61
2021/07/03 00:26:11;;;;;;;10.10;5.00;;;;;;;15.34;69.45;96804.41;4978769;28;20047;-63
2021/07/03 00:28:37;;;;;;;9.70;5.68;;;;;;;15.41;69.12;96807.16;5030809;23;20049;-66
2021/07/03 00:31:03;;;;;;;7.90;5.35;;;;;;;15.54;70.10;96806.72;5054216;28;20111;-64
2021/07/03 00:33:28;;;;;;;7.53;4.70;;;;;;;15.42;70.69;96819.78;5044298;28;20517;-66
2021/07/03 00:35:54;;;;;;;10.63;5.65;;;;;;;15.25;71.85;96817.78;5042968;28;20045;-66
2021/07/03 00:38:19;;;;;;;8.25;4.80;;;;;;;15.21;71.58;96814.25;5036599;28;20401;-65
2021/07/03 00:40:44;;;;;;;9.75;5.35;;;;;;;15.19;71.64;96802.84;5042511;28;20045;-63
2021/07/03 00:43:10;;;;;;;10.75;5.65;;;;;;;15.12;70.45;96811.09;5040166;28;20516;-66
2021/07/03 00:45:36;;;;;;;9.70;5.55;;;;;;;15.03;72.34;96817.00;5044110;28;20041;-64
2021/07/03 00:48:02;;;;;;;8.25;5.15;;;;;;;14.93;73.08;96812.25;5044365;28;20045;-64
2021/07/03 00:50:27;;;;;;;8.45;5.47;;;;;;;14.87;73.84;96811.88;5039201;28;20045;-65
2021/07/03 00:52:53;;;;;;;9.90;5.15;;;;;;;15.02;72.52;96820.97;5040957;28;20095;-64
2021/07/03 00:55:19;;;;;;;12.88;5.03;;;;;;;15.17;72.03;96822.53;5037116;28;20477;-64
2021/07/03 00:57:45;;;;;;;13.27;5.57;;;;;;;15.14;70.96;96820.56;5042538;28;20135;-64
2021/07/03 01:00:12;;;;;;;9.10;5.15;;;;;;;14.99;73.14;96825.28;5037006;28;20063;-63
2021/07/03 01:02:37;;;;;;;7.95;5.00;;;;;;;14.85;73.24;96820.53;5047391;28;20036;-64
2021/07/03 01:05:04;;;;;;;8.85;5.43;;;;;;;14.74;75.42;96822.50;5060200;28;20055;-64
2021/07/03 01:07:30;;;;;;;9.57;5.78;;;;;;;14.75;76.52;96818.56;5062241;28;20044;-66
2021/07/03 01:09:56;;;;;;;14.70;5.85;;;;;;;14.73;77.04;96826.44;5061810;28;20491;-65
2021/07/03 01:12:21;;;;;;;7.45;4.32;;;;;;;14.73;76.66;96829.19;5057273;28;20478;-65
2021/07/03 01:14:49;;;;;;;9.73;5.40;;;;;;;14.64;76.81;96821.31;5061954;28;20401;-65
2021/07/03 01:17:16;;;;;;;8.18;5.05;;;;;;;14.58;77.15;96822.06;5057687;28;20043;-65
2021/07/03 01:19:43;;;;;;;9.80;4.80;;;;;;;14.17;79.68;96825.84;5063433;28;20040;-65
2021/07/03 01:22:10;;;;;;;11.70;5.40;;;;;;;13.90;81.29;96826.13;5059963;28;20066;-64
2021/07/03 01:24:35;;;;;;;12.48;6.30;;;;;;;13.58;83.09;96821.19;5062108;28;20071;-65
2021/07/03 01:27:01;;;;;;;9.63;6.00;;;;;;;13.34;84.46;96819.06;5062240;28;20489;-64
2021/07/03 01:29:27;;;;;;;10.20;5.40;;;;;;;13.32;85.13;96813.94;5059349;28;20054;-64
2021/07/03 01:31:56;;;;;;;9.20;5.00;;;;;;;13.45;85.02;96817.19;5062309;28;20396;-64
2021/07/03 01:34:26;;;;;;;9.47;5.90;;;;;;;13.55;84.79;96812.91;5047953;28;20548;-64
2021/07/03 01:36:52;;;;;;;10.55;5.68;;;;;;;13.45;84.70;96813.63;5048699;28;20846;-65
2021/07/03 01:39:18;;;;;;;10.60;5.93;;;;;;;13.59;83.80;96805.47;5049970;28;20048;-64
2021/07/03 01:41:44;;;;;;;8.90;5.55;;;;;;;13.38;84.61;96812.41;5048676;28;20494;-64
2021/07/03 01:44:11;;;;;;;11.63;5.35;;;;;;;13.54;84.71;96814.06;5037143;28;20045;-65
2021/07/03 01:46:36;;;;;;;13.57;5.75;;;;;;;13.65;84.03;96812.22;5041444;28;20103;-65
2021/07/03 01:49:04;;;;;;;12.65;6.18;;;;;;;13.74;83.55;96815.41;5040542;28;20033;-63
2021/07/03 01:51:29;;;;;;;9.95;5.70;;;;;;;13.67;83.85;96815.34;5041450;28;20045;-65
2021/07/03 01:53:55;;;;;;;9.18;6.00;;;;;;;13.60;83.32;96817.28;5040914;28;20098;-65
2021/07/03 01:56:21;;;;;;;13.88;5.93;;;;;;;13.59;84.15;96813.72;5035961;28;20481;-65
2021/07/03 01:58:46;;;;;;;10.10;5.53;;;;;;;13.63;83.95;96809.06;5041278;28;20660;-65
2021/07/03 02:01:12;;;;;;;15.73;5.78;;;;;;;13.36;85.51;96811.22;5035819;28;20041;-65
2021/07/03 02:03:37;;;;;;;10.48;5.50;;;;;;;12.98;88.12;96814.03;5054937;28;20046;-66
2021/07/03 02:06:05;;;;;;;11.07;6.28;;;;;;;12.83;89.00;96812.31;5059173;28;20053;-64
2021/07/03 02:08:32;;;;;;;14.63;6.28;;;;;;;12.74;89.29;96812.63;5061508;28;20044;-65
2021/07/03 02:11:01;;;;;;;11.50;5.38;;;;;;;12.86;89.89;96810.78;5061218;28;20036;-65
2021/07/03 02:13:28;;;;;;;10.50;5.63;;;;;;;12.98;89.14;96814.03;5060154;28;20102;-65
2021/07/03 02:15:54;;;;;;;13.35;5.63;;;;;;;13.05;88.39;96813.28;5067340;28;20055;-64
2021/07/03 02:18:19;;;;;;;9.93;5.30;;;;;;;13.20;88.20;96800.47;5057842;28;20063;-63
2021/07/03 02:20:44;;;;;;;10.25;5.63;;;;;;;13.30;87.54;96810.75;5061058;28;20127;-65
2021/07/03 02:23:10;;;;;;;10.73;5.50;;;;;;;13.38;87.36;96804.16;5056023;28;20040;-65
2021/07/03 02:25:36;;;;;;;8.70;5.22;;;;;;;13.41;86.87;96799.06;5057478;28;20045;-64
2021/07/03 02:28:01;;;;;;;13.15;5.70;;;;;;;13.25;87.40;96800.09;5041231;28;20064;-65
2021/07/03 02:30:28;;;;;;;11.43;6.03;;;;;;;13.06;87.58;96803.09;5052809;28;20040;-66
2021/07/03 02:32:53;;;;;;;14.52;6.10;;;;;;;12.97;88.53;96804.22;5058358;28;20485;-65
2021/07/03 02:35:19;;;;;;;8.82;5.57;;;;;;;12.96;89.04;96802.66;5055199;28;20106;-65
2021/07/03 02:37:46;;;;;;;10.85;6.10;;;;;;;13.03;88.96;96803.84;5060972;28;20049;-65
2021/07/03 02:40:14;;;;;;;10.00;6.40;;;;;;;13.09;88.43;96805.88;5055336;28;20055;-64
2021/07/03 02:42:40;;;;;;;10.57;6.18;;;;;;;13.16;88.18;96796.88;5060514;28;20041;-65
2021/07/03 02:45:09;;;;;;;10.52;5.45;;;;;;;13.18;87.70;96797.28;5055598;28;20044;-64
2021/07/03 02:47:36;;;;;;;11.05;5.95;;;;;;;13.20;87.41;96800.47;5061234;28;20036;-64
2021/07/03 02:50:03;;;;;;;10.73;5.85;;;;;;;13.25;87.67;96799.31;5060885;28;20052;-64
2021/07/03 02:52:29;;;;;;;11.38;5.72;;;;;;;13.30;87.24;96794.25;5059610;28;20045;-66
2021/07/03 02:54:54;;;;;;;10.90;5.72;;;;;;;13.26;87.33;96787.94;5060324;28;20094;-63
2021/07/03 02:57:20;;;;;;;11.90;5.95;;;;;;;13.20;87.24;96787.50;5055374;28;20040;-66
2021/07/03 02:59:45;;;;;;;9.95;5.82;;;;;;;13.19;87.38;96796.91;5060546;28;20043;-66
2021/07/03 03:02:11;;;;;;;10.00;5.80;;;;;;;13.14;87.42;96801.97;5054137;28;20143;-65
2021/07/03 03:04:38;;;;;;;12.45;6.28;;;;;;;13.03;87.26;96803.84;5042253;28;20095;-65
2021/07/03 03:07:04;;;;;;;9.63;5.38;;;;;;;13.05;88.30;96802.31;5037851;28;20047;-64
2021/07/03 03:09:30;;;;;;;9.45;5.45;;;;;;;13.04;88.31;96805.44;5040416;28;20041;-66
2021/07/03 03:11:55;;;;;;;10.30;6.00;;;;;;;13.04;87.60;96805.44;5041375;28;20041;-66
2021/07/03 03:14:21;;;;;;;10.18;5.93;;;;;;;13.03;88.06;96803.84;5034989;28;20129;-65
2021/07/03 03:16:46;;;;;;;11.18;5.55;;;;;;;13.03;87.89;96804.66;5040675;28;20037;-67
2021/07/03 03:19:12;;;;;;;14.85;5.80;;;;;;;13.03;87.58;96803.84;5041121;28;20291;-65
2021/07/03 03:21:37;;;;;;;10.75;5.50;;;;;;;13.04;87.69;96808.97;5047253;28;20044;-65
2021/07/03 03:24:03;;;;;;;11.00;6.20;;;;;;;13.00;87.83;96808.19;5038566;28;20468;-64
2021/07/03 03:26:29;;;;;;;9.48;5.18;;;;;;;13.01;87.80;96804.25;5041922;28;20398;-65
2021/07/03 03:28:54;;;;;;;12.32;5.43;;;;;;;12.96;87.75;96810.09;5043982;28;20045;-65
2021/07/03 03:31:20;;;;;;;14.88;5.50;;;;;;;12.93;88.00;96803.41;5045210;28;20439;-64
2021/07/03 03:33:45;;;;;;;10.98;5.40;;;;;;;13.01;87.30;96798.75;5057041;28;20037;-65
2021/07/03 03:36:10;;;;;;;9.68;5.70;;;;;;;12.97;87.30;96798.72;5038920;28;20036;-66
2021/07/03 03:38:36;;;;;;;8.82;5.60;;;;;;;12.93;87.38;96802.63;5044156;28;20037;-66
2021/07/03 03:41:02;;;;;;;11.38;5.43;;;;;;;12.89;87.21;96813.56;5043997;28;20037;-65
2021/07/03 03:43:27;;;;;;;9.98;5.45;;;;;;;12.91;87.48;96816.72;5038554;28;20067;-66
2021/07/03 03:45:53;;;;;;;16.35;6.20;;;;;;;12.92;87.19;96815.53;5044065;28;20052;-66
2021/07/03 03:48:18;;;;;;;11.85;6.55;;;;;;;12.82;87.14;96814.28;5038629;28;20045;-66
2021/07/03 03:50:44;;;;;;;12.32;6.07;;;;;;;12.80;87.94;96819.38;5044298;28;20448;-66
2021/07/03 03:53:09;;;;;;;11.90;5.95;;;;;;;12.65;87.79;96814.13;5037345;28;20036;-64
2021/07/03 03:55:35;;;;;;;10.68;5.93;;;;;;;12.32;88.74;96821.22;5044034;28;20124;-65
2021/07/03 03:58:00;;;;;;;12.52;6.38;;;;;;;12.24;89.54;96823.09;5043883;28;20066;-64
2021/07/03 04:00:26;;;;;;;10.55;5.68;;;;;;;12.30;90.31;96813.38;5038915;28;20485;-65
2021/07/03 04:02:51;;;;;;;9.43;5.75;;;;;;;12.55;90.20;96819.13;5051005;28;20481;-65
2021/07/03 04:05:17;;;;;;;14.75;5.72;;;;;;;12.80;89.05;96816.63;5058358;28;20469;-64
2021/07/03 04:07:43;;;;;;;12.10;6.60;;;;;;;12.99;88.45;96814.81;5063833;28;20040;-65
2021/07/03 04:10:10;;;;;;;9.30;5.95;;;;;;;13.20;86.76;96822.47;5058040;28;20108;-65
2021/07/03 04:12:36;;;;;;;11.57;5.40;;;;;;;13.45;85.46;96819.13;5063319;28;20044;-65
2021/07/03 04:15:03;;;;;;;10.35;5.85;;;;;;;13.68;84.13;96818.88;5063439;28;20104;-65
2021/07/03 04:17:29;;;;;;;13.10;6.03;;;;;;;13.81;83.29;96814.66;5061085;28;20033;-65
2021/07/03 04:19:54;;;;;;;10.50;6.00;;;;;;;13.93;82.75;96822.56;5063339;28;20052;-66
2021/07/03 04:22:20;;;;;;;11.70;5.40;;;;;;;14.01;82.44;96819.84;5058023;28;20040;-65
2021/07/03 04:24:45;;;;;;;9.25;5.03;;;;;;;14.05;81.63;96826.97;5063115;28;20044;-64
2021/07/03 04:27:12;;;;;;;9.63;5.35;;;;;;;14.17;81.42;96820.34;5058211;28;20454;-65
2021/07/03 04:29:37;;;;;;;11.30;5.18;;;;;;;14.21;81.69;96817.59;5062464;28;20068;-65
2021/07/03 04:32:03;;;;;;;10.00;5.43;;;;;;;14.34;80.99;96816.84;5049323;28;20068;-62
2021/07/03 04:34:29;;;;;;;8.13;5.68;;;;;;;14.44;80.33;96809.81;5062529;28;20040;-66
2021/07/03 04:36:54;;;;;;;15.70;5.50;;;;;;;14.59;80.15;96813.41;5058609;28;20047;-65
2021/07/03 04:39:20;;;;;;;11.38;5.78;;;;;;;14.82;79.17;96806.75;5038857;28;20039;-65
2021/07/03 04:41:45;;;;;;;9.35;5.45;;;;;;;15.02;78.59;96820.97;5043921;28;20075;-66
2021/07/03 04:44:13;;;;;;;8.80;6.20;;;;;;;15.27;77.45;96805.19;5050752;28;20159;-65
2021/07/03 04:46:39;;;;;;;11.60;5.65;;;;;;;15.56;75.81;96799.66;5056944;28;20457;-65
2021/07/03 04:49:05;;;;;;;9.80;5.03;;;;;;;15.79;74.94;96803.94;5051453;28;20048;-63
2021/07/03 04:51:30;;;;;;;10.32;5.45;;;;;;;15.88;73.67;96801.56;5063036;28;20032;-66
2021/07/03 04:53:56;;;;;;;11.23;4.47;;;;;;;17.35;70.67;96799.97;5067437;28;20048;-65
2021/07/03 04:56:21;;;;;;;8.55;4.43;;;;;;;19.19;62.80;96798.53;5063128;28;20199;-66
2021/07/03 04:58:47;;;;;;;8.82;4.45;;;;;;;20.86;57.42;96790.19;5063548;28;20542;-66
2021/07/03 05:01:12;;;;;;;8.95;4.60;;;;;;;21.94;53.15;96790.31;5063608;28;20068;-63
2021/07/03 05:03:38;;;;;;;6.90;3.83;;;;;;;23.36;48.64;96792.09;5059457;28;20064;-64
2021/07/03 05:06:03;;;;;;;5.97;4.13;;;;;;;24.32;46.43;96783.59;5040309;28;20040;-63
2021/07/03 05:08:44;;;;;;;9.20;4.43;;;;;;;25.29;42.44;96785.50;5040700;28;20037;-71
2021/07/03 05:11:09;;;;;;;7.55;4.68;;;;;;;26.62;40.18;96779.78;5037642;28;20052;-65
2021/07/03 05:13:35;;;;;;;7.35;4.80;;;;;;;27.09;38.73;96779.13;5041893;28;20033;-65
2021/07/03 05:16:01;;;;;;;8.23;4.57;;;;;;;26.95;37.68;96784.66;5048431;28;20036;-65
2021/07/03 05:18:27;;;;;;;7.78;4.22;;;;;;;27.77;35.95;96789.06;5048228;28;20076;-65
2021/07/03 05:20:52;;;;;;;8.25;4.38;;;;;;;28.72;34.63;96783.72;5062872;28;20044;-64
2021/07/03 05:23:18;;;;;;;6.03;3.85;;;;;;;29.32;33.36;96789.28;5056163;28;20063;-65
2021/07/03 05:25:44;;;;;;;12.25;4.53;;;;;;;29.83;32.57;96785.09;5049753;28;20044;-64
2021/07/03 05:28:11;;;;;;;4.57;3.20;;;;;;;30.32;31.91;96782.56;5051013;28;20397;-64
2021/07/03 05:30:37;;;;;;;8.77;4.40;;;;;;;30.58;30.55;96787.50;5052216;28;20048;-65
2021/07/03 05:33:03;;;;;;;6.32;4.13;;;;;;;29.14;33.37;96793.88;5051111;28;20047;-64
2021/07/03 05:35:28;;;;;;;7.20;4.25;;;;;;;30.58;32.24;96790.31;5056997;28;20041;-65
2021/07/03 05:37:54;;;;;;;6.53;4.47;;;;;;;29.24;33.15;96799.41;5049517;28;20409;-65
2021/07/03 05:40:19;;;;;;;6.18;3.78;;;;;;;29.50;33.34;96796.72;5036488;28;20045;-67
2021/07/03 05:42:45;;;;;;;6.80;4.20;;;;;;;29.49;32.81;96790.28;5050586;28;20066;-64
2021/07/03 05:45:14;;;;;;;7.05;4.20;;;;;;;28.43;35.22;96798.53;5046800;28;20041;-64
2021/07/03 05:47:39;;;;;;;;;;;;;;;27.56;36.11;96790.91;5061816;28;20106;-63
2021/07/03 05:50:05;;;;;;;7.18;4.38;;;;;;;25.29;39.91;96805.88;5070945;28;19912;-63
2021/07/03 05:52:31;;;;;;;6.95;4.45;;;;;;;23.49;45.46;96794.84;5061746;28;20041;-62
2021/07/03 05:54:57;;;;;;;6.15;4.60;;;;;;;20.88;52.52;96790.53;5061494;28;20063;-67
2021/07/03 05:57:25;;;;;;;9.70;4.60;;;;;;;20.60;53.66;96776.03;5054916;28;20638;-65
2021/07/03 05:59:50;;;;;;;7.90;4.63;;;;;;;19.34;56.23;96776.84;5053098;28;20131;-65
2021/07/03 06:02:16;;;;;;;7.30;4.88;;;;;;;18.60;60.03;96775.63;5072452;28;20048;-64
2021/07/03 06:04:41;;;;;;;8.15;5.03;;;;;;;18.37;62.09;96781.88;5070886;28;20090;-63
2021/07/03 06:07:07;;;;;;;7.95;4.57;;;;;;;18.27;62.70;96785.56;5068719;28;20111;-63
2021/07/03 06:09:32;;;;;;;8.52;4.68;;;;;;;19.71;59.65;96789.69;5062545;28;20376;-65
2021/07/03 06:11:57;;;;;;;7.72;4.63;;;;;;;20.79;54.81;96777.19;5042426;28;20063;-64
2021/07/03 06:14:23;;;;;;;9.90;4.32;;;;;;;19.63;58.18;96782.72;5047421;28;20074;-67
2021/07/03 06:16:48;;;;;;;7.88;5.07;;;;;;;20.09;57.68;96772.72;5061600;28;20037;-64
2021/07/03 06:19:14;;;;;;;9.63;4.65;;;;;;;20.51;57.15;96775.84;5056013;28;20086;-65
2021/07/03 06:21:39;;;;;;;9.55;4.70;;;;;;;20.09;56.66;96783.06;5062847;28;20075;-64
2021/07/03 06:24:07;;;;;;;7.10;4.25;;;;;;;21.36;53.40;96777.06;5059344;28;20040;-62
2021/07/03 06:26:33;;;;;;;6.82;4.68;;;;;;;19.86;57.38;96781.91;5058392;28;20071;-65
2021/07/03 06:28:59;;;;;;;6.38;4.47;;;;;;;21.10;54.71;96771.31;5052736;28;20079;-64
2021/07/03 06:31:24;;;;;;;7.57;4.88;;;;;;;21.05;54.47;96757.13;5052363;28;20683;-65
2021/07/03 06:33:50;;;;;;;7.05;4.65;;;;;;;21.83;51.44;96765.50;5053248;28;20390;-65
2021/07/03 06:36:15;;;;;;;6.47;4.13;;;;;;;22.44;48.65;96760.25;5035485;28;20136;-67
2021/07/03 06:38:41;;;;;;;7.45;4.30;;;;;;;22.09;51.18;96758.03;5040401;28;20124;-64
2021/07/03 06:41:06;;;;;;;5.38;3.60;;;;;;;20.61;54.72;96744.22;5035657;28;20477;-64
2021/07/03 06:43:31;;;;;;;6.88;3.92;;;;;;;21.06;53.87;96759.47;5047445;28;20389;-64
2021/07/03 06:45:57;;;;;;;8.13;3.75;;;;;;;20.33;54.03;96765.09;5046527;28;20041;-66
2021/07/03 06:48:22;;;;;;;8.45;3.97;;;;;;;21.77;50.33;96765.25;5035547;28;20041;-65
2021/07/03 06:50:48;;;;;;;8.65;3.97;;;;;;;20.54;53.79;96766.59;5052421;28;20052;-65
2021/07/03 06:53:13;;;;;;;8.38;4.28;;;;;;;20.50;54.14;96762.34;5051753;28;20085;-65
2021/07/03 06:55:38;;;;;;;11.27;4.40;;;;;;;22.51;49.00;96763.59;5060541;28;20162;-65
2021/07/03 06:58:04;;;;;;;7.22;4.00;;;;;;;24.87;42.31;96769.16;5053327;28;20052;-63
2021/07/03 07:00:29;;;;;;;6.68;3.45;;;;;;;25.44;41.96;96766.06;5052097;28;20036;-65
2021/07/03 07:02:55;;;;;;;7.80;3.88;;;;;;;23.93;44.83;96769.00;5054978;28;20037;-65
2021/07/03 07:05:20;;;;;;;10.07;4.20;;;;;;;25.09;41.27;96778.25;5039592;28;20132;-65
2021/07/03 07:07:46;;;;;;;9.45;4.20;;;;;;;26.83;38.10;96773.16;5044432;28;20497;-65
2021/07/03 07:10:12;;;;;;;6.32;3.55;;;;;;;28.01;35.36;96769.34;5039637;28;20041;-64
2021/07/03 07:12:37;;;;;;;20.05;3.97;;;;;;;28.02;35.55;96767.34;5057272;28;20036;-64
2021/07/03 07:15:03;;;;;;;5.90;3.72;;;;;;;27.76;36.55;96769.84;5046417;28;20520;-63
2021/07/03 07:17:28;;;;;;;7.72;3.75;;;;;;;24.26;42.37;96777.81;5043231;28;20037;-64
2021/07/03 07:19:54;;;;;;;5.70;4.00;;;;;;;24.77;41.96;96769.09;5051699;28;20456;-64
2021/07/03 07:22:19;;;;;;;7.80;3.78;;;;;;;23.15;45.42;96774.00;5050359;28;20501;-63
2021/07/03 07:24:45;;;;;;;7.75;3.88;;;;;;;24.52;43.55;96774.84;5072185;28;20083;-63
2021/07/03 07:27:10;;;;;;;9.82;3.70;;;;;;;26.78;37.65;96762.56;5061406;28;20098;-63
2021/07/03 07:29:36;;;;;;;6.68;3.78;;;;;;;26.96;37.77;96752.50;5057351;28;20036;-64
2021/07/03 07:32:01;;;;;;;5.88;3.72;;;;;;;24.28;43.17;96752.94;5062158;28;20067;-65
2021/07/03 07:34:27;;;;;;;7.13;4.22;;;;;;;23.31;46.72;96752.75;5059446;28;20102;-64
2021/07/03 07:36:52;;;;;;;6.85;3.42;;;;;;;25.36;40.78;96749.53;5059891;28;20041;-65
2021/07/03 07:39:18;;;;;;;8.45;3.50;;;;;;;26.93;38.05;96730.97;5056201;28;20504;-64
2021/07/03 07:41:43;;;;;;;5.32;3.40;;;;;;;27.76;36.94;96733.25;5063634;28;20040;-65
2021/07/03 07:44:09;;;;;;;5.85;3.60;;;;;;;29.78;33.14;96728.59;5058393;28;20540;-65
2021/07/03 07:46:34;;;;;;;6.72;3.47;;;;;;;29.14;33.06;96734.66;5062861;28;20393;-65
2021/07/03 07:49:00;;;;;;;9.43;3.42;;;;;;;25.14;40.91;96741.22;5055953;28;20128;-64
2021/07/03 07:51:26;;;;;;;7.40;3.88;;;;;;;23.97;44.45;96745.28;5056223;28;20044;-64
2021/07/03 07:53:51;;;;;;;5.65;3.80;;;;;;;24.14;43.33;96737.47;5063420;28;20037;-64
2021/07/03 07:56:18;;;;;;;5.97;3.20;;;;;;;25.79;38.72;96732.13;5058326;28;20040;-65
2021/07/03 07:58:44;;;;;;;5.50;3.55;;;;;;;26.54;37.82;96723.13;5064007;28;20374;-65
2021/07/03 08:01:13;;;;;;;5.47;3.67;;;;;;;24.69;41.33;96727.84;5057903;28;20044;-65
2021/07/03 08:03:53;;;;;;;6.38;3.58;;;;;;;23.99;44.52;96726.00;5053897;28;20044;-65
2021/07/03 08:06:18;;;;;;;6.90;4.10;;;;;;;24.19;44.47;96717.28;5040510;28;20115;-65
2021/07/03 08:08:44;;;;;;;8.45;3.80;;;;;;;23.75;44.61;96720.06;5042774;28;20044;-65
2021/07/03 08:11:09;;;;;;;5.97;3.70;;;;;;;23.84;44.96;96716.56;5038109;28;20088;-65
2021/07/03 08:13:35;;;;;;;5.43;3.60;;;;;;;24.88;42.60;96709.06;5041581;28;20048;-65
2021/07/03 08:16:00;;;;;;;6.47;3.78;;;;;;;26.95;38.44;96703.94;5044216;28;20033;-65
2021/07/03 08:18:26;;;;;;;7.07;3.53;;;;;;;26.70;38.47;96697.50;5054731;28;20397;-64
2021/07/03 08:20:52;;;;;;;8.52;3.00;;;;;;;27.26;38.19;96691.56;5059785;28;20090;-64
2021/07/03 08:23:17;;;;;;;6.30;3.75;;;;;;;27.56;38.15;96697.31;5045182;28;20044;-63
2021/07/03 08:25:42;;;;;;;6.32;3.63;;;;;;;27.50;39.28;96700.03;5063537;28;20037;-64
2021/07/03 08:28:08;;;;;;;4.75;3.33;;;;;;;27.06;40.21;96698.59;5058149;28;20123;-63
2021/07/03 08:30:34;;;;;;;7.10;3.53;;;;;;;26.83;40.86;96693.69;5073506;28;20057;-63
2021/07/03 08:33:00;;;;;;;7.18;3.85;;;;;;;26.74;41.98;96696.53;5070463;28;20055;-63
2021/07/03 08:35:26;;;;;;;6.13;3.70;;;;;;;27.26;40.52;96694.38;5051702;28;20107;-62
2021/07/03 08:37:52;;;;;;;6.00;4.20;;;;;;;26.81;40.18;96701.81;5054387;28;20045;-63
2021/07/03 08:40:18;;;;;;;6.25;3.67;;;;;;;26.54;40.90;96702.69;5057760;28;20124;-64
2021/07/03 08:42:44;;;;;;;8.00;4.20;;;;;;;26.61;40.91;96705.97;5062023;28;20037;-65
2021/07/03 08:45:10;;;;;;;7.32;4.05;;;;;;;26.36;42.27;96709.13;5049821;28;20047;-64
2021/07/03 08:47:45;;;;;;;5.97;3.80;;;;;;;26.70;41.72;96700.31;5062917;28;20128;-64
2021/07/03 08:50:13;;;;;;;7.65;4.10;;;;;;;27.19;39.95;96697.53;5055182;28;20396;-65
2021/07/03 08:52:38;;;;;;;5.25;3.33;;;;;;;26.92;40.86;96701.28;5050099;28;20037;-65
2021/07/03 08:55:21;;;;;;;6.53;4.30;;;;;;;26.67;41.26;96698.47;5038787;28;20400;-64
2021/07/03 08:57:54;;;;;;;6.78;3.80;;;;;;;26.63;41.92;96697.84;5043107;28;20040;-64
2021/07/03 09:00:46;;;;;;;7.07;3.90;;;;;;;26.35;42.36;96694.34;5036933;28;20056;-63
2021/07/03 09:03:13;;;;;;;8.27;4.50;;;;;;;26.04;42.07;96703.75;5039493;28;20379;-64
2021/07/03 09:05:40;;;;;;;6.70;3.60;;;;;;;26.11;41.77;96700.63;5042154;28;20048;-64
2021/07/03 09:08:08;;;;;;;7.22;4.13;;;;;;;26.14;41.89;96684.88;5036757;28;20474;-65
2021/07/03 09:10:36;;;;;;;7.97;4.50;;;;;;;26.17;42.51;96692.34;5042420;28;20037;-64
2021/07/03 09:13:03;;;;;;;8.63;4.35;;;;;;;24.60;44.85;96701.34;5042320;28;20106;-64
2021/07/03 09:15:37;;;;;;;6.55;4.45;;;;;;;26.06;42.42;96689.25;5040030;28;20048;-64
2021/07/03 09:18:09;;;;;;;9.80;5.47;;;;;;;26.64;41.59;96688.16;5057479;28;20037;-64
2021/07/03 09:20:38;;;;;;;6.80;4.05;;;;;;;27.27;40.24;96681.91;5042690;28;20052;-65
2021/07/03 09:23:08;;;;;;;6.65;3.78;;;;;;;27.37;41.03;96689.03;5039709;28;20037;-65
2021/07/03 09:25:38;;;;;;;8.63;4.50;;;;;;;27.17;41.95;96689.63;5053721;28;20090;-64
2021/07/03 09:28:09;;;;;;;6.20;4.43;;;;;;;26.82;40.24;96684.50;5057422;28;20051;-64
2021/07/03 09:30:34;;;;;;;8.30;4.25;;;;;;;25.89;42.37;96688.78;5058221;28;20041;-65
2021/07/03 09:33:00;;;;;;;6.18;4.20;;;;;;;26.67;41.47;96689.25;5054305;28;20075;-65
2021/07/03 09:35:25;;;;;;;5.10;3.72;;;;;;;26.56;41.63;96683.31;5056591;28;20400;-64
2021/07/03 09:37:59;;;;;;;5.28;3.88;;;;;;;25.74;42.15;96688.66;5061436;28;20040;-64
2021/07/03 09:40:28;;;;;;;7.45;3.95;;;;;;;26.83;40.72;96671.22;5056435;28;20938;-64
2021/07/03 09:42:53;;;;;;;6.60;4.32;;;;;;;27.36;40.04;96676.22;5061413;28;20040;-65
2021/07/03 09:45:19;;;;;;;8.35;4.43;;;;;;;27.80;39.49;96675.56;5054752;28;20121;-65
2021/07/03 09:47:44;;;;;;;6.05;3.60;;;;;;;28.00;38.46;96677.75;5056905;28;20098;-65
2021/07/03 09:50:12;;;;;;;7.53;3.53;;;;;;;28.10;38.46;96675.59;5052608;28;20032;-64
2021/07/03 09:52:39;;;;;;;7.40;4.53;;;;;;;26.78;38.84;96667.03;5061487;28;20040;-65
2021/07/03 09:55:07;;;;;;;5.43;3.85;;;;;;;27.58;38.83;96669.50;5057303;28;20051;-66
2021/07/03 09:57:37;;;;;;;6.40;4.72;;;;;;;27.80;38.26;96660.69;5060176;28;20045;-63
2021/07/03 10:00:09;;;;;;;5.85;3.42;;;;;;;27.91;37.96;96660.16;5055893;28;20044;-63
2021/07/03 10:02:35;;;;;;;7.55;4.05;;;;;;;26.90;39.60;96654.00;5046297;28;20059;-63
2021/07/03 10:05:00;;;;;;;6.03;3.92;;;;;;;27.94;36.90;96662.00;5061328;28;20032;-63
2021/07/03 10:07:40;;;;;;;5.63;3.53;;;;;;;28.13;37.32;96662.59;5055782;28;20044;-65
2021/07/03 10:10:14;;;;;;;5.90;3.83;;;;;;;27.76;38.60;96658.06;5055758;28;20039;-65
2021/07/03 10:12:43;;;;;;;4.93;3.38;;;;;;;28.04;38.24;96652.22;5060818;28;20119;-64
2021/07/03 10:15:08;;;;;;;4.10;3.08;;;;;;;27.33;39.60;96648.28;5054735;28;20106;-65
2021/07/03 10:17:36;;;;;;;5.72;3.50;;;;;;;25.83;39.79;96643.75;5042526;28;20140;-64
2021/07/03 10:20:07;;;;;;;5.07;3.33;;;;;;;25.83;39.96;96640.16;5039591;28;20037;-64
2021/07/03 10:22:34;;;;;;;6.32;3.65;;;;;;;25.02;40.25;96643.28;5040961;28;20041;-64
2021/07/03 10:25:12;;;;;;;5.82;3.55;;;;;;;26.20;39.07;96631.66;5041561;28;20071;-64
2021/07/03 10:27:49;;;;;;;5.47;3.55;;;;;;;27.16;36.91;96629.00;5040181;28;20052;-64
2021/07/03 10:30:27;;;;;;;6.90;3.75;;;;;;;27.75;36.17;96627.59;5051830;28;20041;-64
2021/07/03 10:32:55;;;;;;;5.15;3.00;;;;;;;27.67;35.70;96626.44;5047435;28;20520;-63
2021/07/03 10:35:22;;;;;;;5.60;3.20;;;;;;;27.87;35.41;96623.72;5053287;28;20041;-63
2021/07/03 10:37:47;;;;;;;6.43;2.90;;;;;;;28.23;33.49;96616.16;5059813;28;20040;-64
2021/07/03 10:40:18;;;;;;;4.03;2.75;;;;;;;28.39;33.81;96621.28;5055544;28;20537;-64
2021/07/03 10:42:44;;;;;;;6.20;3.58;;;;;;;28.08;36.86;96626.69;5059357;28;20628;-64
2021/07/03 10:45:22;;;;;;;5.40;3.50;;;;;;;27.75;37.81;96622.75;5052989;28;20137;-64
2021/07/03 10:47:48;;;;;;;5.43;3.40;;;;;;;27.76;37.30;96621.47;5053576;28;20033;-64
2021/07/03 10:50:33;;;;;;;5.35;3.38;;;;;;;27.55;37.77;96619.81;5054794;28;20037;-64
2021/07/03 10:52:58;;;;;;;4.63;3.47;;;;;;;27.25;38.16;96614.88;5048149;28;20507;-64
2021/07/03 10:55:33;;;;;;;12.50;3.53;;;;;;;27.09;38.55;96613.28;5053156;28;20194;-65
2021/07/03 10:58:02;;;;;;;5.03;3.55;;;;;;;27.41;38.32;96616.50;5059519;28;20098;-64
2021/07/03 11:00:28;;;;;;;6.55;3.95;;;;;;;27.70;37.88;96606.56;5048206;28;20037;-64
2021/07/03 11:02:56;;;;;;;5.13;3.20;;;;;;;27.76;37.11;96615.09;5051642;28;20044;-64
2021/07/03 11:05:32;;;;;;;6.20;2.90;;;;;;;27.77;37.57;96613.84;5034984;28;20147;-64
2021/07/03 11:08:08;;;;;;;5.05;3.10;;;;;;;27.67;36.94;96615.19;5039819;28;20048;-64
2021/07/03 11:10:33;;;;;;;8.43;3.45;;;;;;;27.77;37.55;96608.22;5039709;28;20377;-64
2021/07/03 11:13:01;;;;;;;5.40;3.33;;;;;;;27.42;37.40;96592.75;5045203;28;20272;-64
2021/07/03 11:15:28;;;;;;;5.80;3.65;;;;;;;27.29;37.95;96592.22;5052712;28;20036;-64
2021/07/03 11:17:58;;;;;;;6.07;4.00;;;;;;;26.86;38.36;96595.16;5039969;28;20146;-63
2021/07/03 11:20:35;;;;;;;4.15;3.15;;;;;;;26.85;39.76;96582.41;5034933;28;20098;-63
2021/07/03 11:23:03;;;;;;;6.80;3.78;;;;;;;27.72;39.78;96587.16;5040439;28;20048;-63
2021/07/03 11:25:45;;;;;;;6.22;3.85;;;;;;;28.08;36.92;96573.19;5050184;28;20045;-64
2021/07/03 11:28:19;;;;;;;5.05;2.72;;;;;;;27.78;36.15;96578.78;5050815;28;20048;-63
2021/07/03 11:30:48;;;;;;;4.68;2.90;;;;;;;28.09;36.08;96586.00;5059749;28;20065;-65